sensor_id;sensor_type;location;lat;lon;timestamp;P1;durP1;ratioP1;P2;durP2;ratioP2
17214;SDS011;8723;51.502;6.918;2024-02-23T00:01:05;1.07;;;1.00;;
17214;SDS011;8723;51.502;6.918;2024-02-23T00:03:33;1.40;;;0.90;;
17214;SDS011;8723;51.502;6.918;2024-02-23T00:06:01;1.00;;;1.00;;
17214;SDS011;8723;51.502;6.918;2024-02-23T00:08:29;1.25;;;1.00;;
17214;SDS011;8723;51.502;6.918;2024-02-23T00:10:56;1.00;;;1.00;;
17214;SDS011;8723;51.502;6.918;2024-02-23T00:13:23;1.80;;;1.00;;
17214;SDS011;8723;51.502;6.918;2024-02-23T00:15:51;1.20;;;1.10;;
17214;SDS011;8723;51.502;6.918;2024-02-23T00:18:19;1.30;;;1.20;;
17214;SDS011;8723;51.502;6.918;2024-02-23T00:20:46;1.38;;;1.20;;
17214;SDS011;8723;51.502;6.918;2024-02-23T00:23:13;1.55;;;1.15;;
17214;SDS011;8723;51.502;6.918;2024-02-23T00:25:40;2.10;;;1.30;;
17214;SDS011;8723;51.502;6.918;2024-02-23T00:28:08;1.50;;;1.30;;
17214;SDS011;8723;51.502;6.918;2024-02-23T00:30:35;1.58;;;1.40;;
17214;SDS011;8723;51.502;6.918;2024-02-23T00:33:04;1.67;;;1.57;;
17214;SDS011;8723;51.502;6.918;2024-02-23T00:35:31;2.08;;;1.55;;
17214;SDS011;8723;51.502;6.918;2024-02-23T00:37:58;1.77;;;1.40;;
17214;SDS011;8723;51.502;6.918;2024-02-23T00:40:25;1.50;;;1.40;;
17214;SDS011;8723;51.502;6.918;2024-02-23T00:42:53;1.40;;;1.30;;
17214;SDS011;8723;51.502;6.918;2024-02-23T00:45:20;2.90;;;1.80;;
17214;SDS011;8723;51.502;6.918;2024-02-23T00:47:47;2.42;;;2.20;;
17214;SDS011;8723;51.502;6.918;2024-02-23T00:50:16;2.30;;;1.90;;
17214;SDS011;8723;51.502;6.918;2024-02-23T00:52:43;2.20;;;2.00;;
17214;SDS011;8723;51.502;6.918;2024-02-23T00:55:10;2.30;;;2.10;;
17214;SDS011;8723;51.502;6.918;2024-02-23T00:57:37;3.55;;;2.45;;
17214;SDS011;8723;51.502;6.918;2024-02-23T01:00:05;2.60;;;2.40;;
17214;SDS011;8723;51.502;6.918;2024-02-23T01:02:34;3.60;;;2.55;;
17214;SDS011;8723;51.502;6.918;2024-02-23T01:05:02;3.58;;;2.72;;
17214;SDS011;8723;51.502;6.918;2024-02-23T01:07:30;3.97;;;3.33;;
17214;SDS011;8723;51.502;6.918;2024-02-23T01:09:57;3.97;;;3.58;;
17214;SDS011;8723;51.502;6.918;2024-02-23T01:12:24;4.00;;;3.27;;
17214;SDS011;8723;51.502;6.918;2024-02-23T01:14:51;4.28;;;3.40;;
17214;SDS011;8723;51.502;6.918;2024-02-23T01:17:19;5.43;;;3.42;;
17214;SDS011;8723;51.502;6.918;2024-02-23T01:19:46;4.97;;;3.40;;
17214;SDS011;8723;51.502;6.918;2024-02-23T01:22:13;3.95;;;3.45;;
17214;SDS011;8723;51.502;6.918;2024-02-23T01:24:41;4.63;;;3.03;;
17214;SDS011;8723;51.502;6.918;2024-02-23T01:27:08;3.50;;;3.05;;
17214;SDS011;8723;51.502;6.918;2024-02-23T01:29:35;3.88;;;3.30;;
17214;SDS011;8723;51.502;6.918;2024-02-23T01:32:03;3.92;;;3.10;;
17214;SDS011;8723;51.502;6.918;2024-02-23T01:34:30;3.35;;;3.03;;
17214;SDS011;8723;51.502;6.918;2024-02-23T01:36:58;4.13;;;3.08;;
17214;SDS011;8723;51.502;6.918;2024-02-23T01:39:26;4.97;;;3.35;;
17214;SDS011;8723;51.502;6.918;2024-02-23T01:41:54;4.25;;;3.38;;
17214;SDS011;8723;51.502;6.918;2024-02-23T01:44:21;5.27;;;3.67;;
17214;SDS011;8723;51.502;6.918;2024-02-23T01:46:48;4.70;;;2.90;;
17214;SDS011;8723;51.502;6.918;2024-02-23T01:49:16;3.20;;;2.80;;
17214;SDS011;8723;51.502;6.918;2024-02-23T01:51:43;2.80;;;1.98;;
17214;SDS011;8723;51.502;6.918;2024-02-23T01:54:10;2.15;;;1.70;;
17214;SDS011;8723;51.502;6.918;2024-02-23T01:56:38;2.78;;;1.63;;
17214;SDS011;8723;51.502;6.918;2024-02-23T01:59:07;5.40;;;2.13;;
17214;SDS011;8723;51.502;6.918;2024-02-23T02:01:36;4.88;;;2.55;;
17214;SDS011;8723;51.502;6.918;2024-02-23T02:04:03;4.13;;;2.43;;
17214;SDS011;8723;51.502;6.918;2024-02-23T02:06:30;3.03;;;2.20;;
17214;SDS011;8723;51.502;6.918;2024-02-23T02:08:57;3.70;;;2.10;;
17214;SDS011;8723;51.502;6.918;2024-02-23T02:11:25;3.63;;;2.20;;
17214;SDS011;8723;51.502;6.918;2024-02-23T02:13:52;6.28;;;2.30;;
17214;SDS011;8723;51.502;6.918;2024-02-23T02:16:20;5.00;;;1.90;;
17214;SDS011;8723;51.502;6.918;2024-02-23T02:18:47;4.93;;;2.10;;
17214;SDS011;8723;51.502;6.918;2024-02-23T02:21:15;4.30;;;2.13;;
17214;SDS011;8723;51.502;6.918;2024-02-23T02:23:42;4.30;;;2.53;;
17214;SDS011;8723;51.502;6.918;2024-02-23T02:26:09;4.50;;;2.20;;
17214;SDS011;8723;51.502;6.918;2024-02-23T02:28:36;6.20;;;2.70;;
17214;SDS011;8723;51.502;6.918;2024-02-23T02:31:03;4.53;;;2.47;;
17214;SDS011;8723;51.502;6.918;2024-02-23T02:33:32;5.93;;;2.60;;
17214;SDS011;8723;51.502;6.918;2024-02-23T02:35:59;5.55;;;2.72;;
17214;SDS011;8723;51.502;6.918;2024-02-23T02:38:26;5.13;;;2.65;;
17214;SDS011;8723;51.502;6.918;2024-02-23T02:40:53;4.10;;;2.33;;
17214;SDS011;8723;51.502;6.918;2024-02-23T02:43:22;6.57;;;2.22;;
17214;SDS011;8723;51.502;6.918;2024-02-23T02:45:52;3.63;;;1.90;;
17214;SDS011;8723;51.502;6.918;2024-02-23T02:48:20;4.72;;;1.83;;
17214;SDS011;8723;51.502;6.918;2024-02-23T02:50:51;4.32;;;1.75;;
17214;SDS011;8723;51.502;6.918;2024-02-23T02:53:20;5.80;;;1.93;;
17214;SDS011;8723;51.502;6.918;2024-02-23T02:55:49;5.18;;;1.80;;
17214;SDS011;8723;51.502;6.918;2024-02-23T02:58:19;4.47;;;1.65;;
17214;SDS011;8723;51.502;6.918;2024-02-23T03:00:48;4.70;;;1.80;;
17214;SDS011;8723;51.502;6.918;2024-02-23T03:03:18;6.35;;;1.83;;
17214;SDS011;8723;51.502;6.918;2024-02-23T03:05:48;5.13;;;1.75;;
17214;SDS011;8723;51.502;6.918;2024-02-23T03:08:19;5.35;;;1.70;;
17214;SDS011;8723;51.502;6.918;2024-02-23T03:10:48;7.10;;;1.70;;
17214;SDS011;8723;51.502;6.918;2024-02-23T03:13:18;4.55;;;1.58;;
17214;SDS011;8723;51.502;6.918;2024-02-23T03:15:47;5.17;;;1.67;;
17214;SDS011;8723;51.502;6.918;2024-02-23T03:18:16;6.13;;;1.90;;
17214;SDS011;8723;51.502;6.918;2024-02-23T03:20:45;4.93;;;2.00;;
17214;SDS011;8723;51.502;6.918;2024-02-23T03:23:14;5.47;;;2.13;;
17214;SDS011;8723;51.502;6.918;2024-02-23T03:25:45;4.68;;;1.90;;
17214;SDS011;8723;51.502;6.918;2024-02-23T03:28:14;5.35;;;2.20;;
17214;SDS011;8723;51.502;6.918;2024-02-23T03:30:44;2.15;;;1.27;;
17214;SDS011;8723;51.502;6.918;2024-02-23T03:33:13;4.75;;;1.52;;
17214;SDS011;8723;51.502;6.918;2024-02-23T03:35:42;3.92;;;1.55;;
17214;SDS011;8723;51.502;6.918;2024-02-23T03:38:12;2.60;;;1.20;;
17214;SDS011;8723;51.502;6.918;2024-02-23T03:40:41;3.53;;;1.17;;
17214;SDS011;8723;51.502;6.918;2024-02-23T03:43:12;3.25;;;1.40;;
17214;SDS011;8723;51.502;6.918;2024-02-23T03:45:42;6.25;;;1.50;;
17214;SDS011;8723;51.502;6.918;2024-02-23T03:48:11;2.70;;;1.40;;
17214;SDS011;8723;51.502;6.918;2024-02-23T03:50:40;6.18;;;1.80;;
17214;SDS011;8723;51.502;6.918;2024-02-23T03:53:10;2.53;;;1.25;;
17214;SDS011;8723;51.502;6.918;2024-02-23T03:55:39;3.70;;;1.40;;
17214;SDS011;8723;51.502;6.918;2024-02-23T03:58:08;4.05;;;1.20;;
17214;SDS011;8723;51.502;6.918;2024-02-23T04:00:39;3.33;;;1.20;;
17214;SDS011;8723;51.502;6.918;2024-02-23T04:03:09;4.22;;;1.77;;
17214;SDS011;8723;51.502;6.918;2024-02-23T04:05:38;6.93;;;1.90;;
17214;SDS011;8723;51.502;6.918;2024-02-23T04:08:07;5.63;;;1.58;;
17214;SDS011;8723;51.502;6.918;2024-02-23T04:10:36;4.32;;;1.65;;
17214;SDS011;8723;51.502;6.918;2024-02-23T04:13:05;3.83;;;1.02;;
17214;SDS011;8723;51.502;6.918;2024-02-23T04:15:33;4.57;;;1.33;;
17214;SDS011;8723;51.502;6.918;2024-02-23T04:18:02;3.67;;;1.27;;
17214;SDS011;8723;51.502;6.918;2024-02-23T04:20:29;4.07;;;1.20;;
17214;SDS011;8723;51.502;6.918;2024-02-23T04:22:57;5.57;;;1.38;;
17214;SDS011;8723;51.502;6.918;2024-02-23T04:25:25;2.88;;;1.10;;
17214;SDS011;8723;51.502;6.918;2024-02-23T04:27:52;3.33;;;1.10;;
17214;SDS011;8723;51.502;6.918;2024-02-23T04:30:19;3.50;;;1.15;;
17214;SDS011;8723;51.502;6.918;2024-02-23T04:32:46;4.22;;;1.27;;
17214;SDS011;8723;51.502;6.918;2024-02-23T04:35:15;4.07;;;1.13;;
17214;SDS011;8723;51.502;6.918;2024-02-23T04:37:43;4.32;;;1.30;;
17214;SDS011;8723;51.502;6.918;2024-02-23T04:40:11;3.70;;;0.98;;
17214;SDS011;8723;51.502;6.918;2024-02-23T04:42:38;6.57;;;1.30;;
17214;SDS011;8723;51.502;6.918;2024-02-23T04:45:05;4.38;;;1.30;;
17214;SDS011;8723;51.502;6.918;2024-02-23T04:47:33;3.90;;;1.02;;
17214;SDS011;8723;51.502;6.918;2024-02-23T04:50:00;4.77;;;1.00;;
17214;SDS011;8723;51.502;6.918;2024-02-23T04:52:29;4.22;;;1.10;;
17214;SDS011;8723;51.502;6.918;2024-02-23T04:54:56;2.97;;;1.02;;
17214;SDS011;8723;51.502;6.918;2024-02-23T04:57:23;5.65;;;1.40;;
17214;SDS011;8723;51.502;6.918;2024-02-23T04:59:51;3.72;;;0.90;;
17214;SDS011;8723;51.502;6.918;2024-02-23T05:02:18;4.70;;;1.20;;
17214;SDS011;8723;51.502;6.918;2024-02-23T05:04:45;4.53;;;1.35;;
17214;SDS011;8723;51.502;6.918;2024-02-23T05:07:12;4.78;;;1.10;;
17214;SDS011;8723;51.502;6.918;2024-02-23T05:09:41;3.92;;;1.15;;
17214;SDS011;8723;51.502;6.918;2024-02-23T05:12:08;5.30;;;1.15;;
17214;SDS011;8723;51.502;6.918;2024-02-23T05:14:35;5.10;;;1.20;;
17214;SDS011;8723;51.502;6.918;2024-02-23T05:17:02;3.47;;;1.10;;
17214;SDS011;8723;51.502;6.918;2024-02-23T05:19:30;3.33;;;1.40;;
17214;SDS011;8723;51.502;6.918;2024-02-23T05:21:57;6.03;;;1.40;;
17214;SDS011;8723;51.502;6.918;2024-02-23T05:24:24;3.03;;;1.20;;
17214;SDS011;8723;51.502;6.918;2024-02-23T05:26:52;3.28;;;1.15;;
17214;SDS011;8723;51.502;6.918;2024-02-23T05:29:20;4.93;;;1.10;;
17214;SDS011;8723;51.502;6.918;2024-02-23T05:31:48;5.43;;;1.30;;
17214;SDS011;8723;51.502;6.918;2024-02-23T05:34:15;3.50;;;1.27;;
17214;SDS011;8723;51.502;6.918;2024-02-23T05:36:43;4.00;;;1.25;;
17214;SDS011;8723;51.502;6.918;2024-02-23T05:39:10;3.57;;;1.10;;
17214;SDS011;8723;51.502;6.918;2024-02-23T05:41:38;4.45;;;1.20;;
17214;SDS011;8723;51.502;6.918;2024-02-23T05:44:06;5.20;;;1.40;;
17214;SDS011;8723;51.502;6.918;2024-02-23T05:46:34;3.15;;;1.10;;
17214;SDS011;8723;51.502;6.918;2024-02-23T05:49:01;4.22;;;1.15;;
17214;SDS011;8723;51.502;6.918;2024-02-23T05:51:29;3.13;;;1.23;;
17214;SDS011;8723;51.502;6.918;2024-02-23T05:53:56;5.17;;;1.53;;
17214;SDS011;8723;51.502;6.918;2024-02-23T05:56:23;5.47;;;1.25;;
17214;SDS011;8723;51.502;6.918;2024-02-23T05:58:50;3.95;;;1.30;;
17214;SDS011;8723;51.502;6.918;2024-02-23T06:01:19;4.00;;;1.13;;
17214;SDS011;8723;51.502;6.918;2024-02-23T06:03:46;5.18;;;1.50;;
17214;SDS011;8723;51.502;6.918;2024-02-23T06:06:13;4.07;;;1.50;;
17214;SDS011;8723;51.502;6.918;2024-02-23T06:08:40;4.47;;;1.45;;
17214;SDS011;8723;51.502;6.918;2024-02-23T06:11:09;2.70;;;1.10;;
17214;SDS011;8723;51.502;6.918;2024-02-23T06:13:36;4.95;;;1.30;;
17214;SDS011;8723;51.502;6.918;2024-02-23T06:16:03;4.63;;;1.20;;
17214;SDS011;8723;51.502;6.918;2024-02-23T06:18:32;6.10;;;1.50;;
17214;SDS011;8723;51.502;6.918;2024-02-23T06:20:59;4.85;;;1.30;;
17214;SDS011;8723;51.502;6.918;2024-02-23T06:23:27;5.65;;;1.80;;
17214;SDS011;8723;51.502;6.918;2024-02-23T06:25:54;5.45;;;1.50;;
17214;SDS011;8723;51.502;6.918;2024-02-23T06:28:21;4.50;;;1.20;;
17214;SDS011;8723;51.502;6.918;2024-02-23T06:30:48;5.70;;;1.50;;
17214;SDS011;8723;51.502;6.918;2024-02-23T06:33:15;3.88;;;1.25;;
17214;SDS011;8723;51.502;6.918;2024-02-23T06:35:44;5.30;;;1.35;;
17214;SDS011;8723;51.502;6.918;2024-02-23T06:38:11;3.90;;;1.23;;
17214;SDS011;8723;51.502;6.918;2024-02-23T06:40:38;5.47;;;2.80;;
17214;SDS011;8723;51.502;6.918;2024-02-23T06:43:05;4.53;;;2.13;;
17214;SDS011;8723;51.502;6.918;2024-02-23T06:45:32;7.20;;;1.40;;
17214;SDS011;8723;51.502;6.918;2024-02-23T06:47:59;3.70;;;1.30;;
17214;SDS011;8723;51.502;6.918;2024-02-23T06:50:26;4.80;;;1.50;;
17214;SDS011;8723;51.502;6.918;2024-02-23T06:52:55;5.10;;;1.40;;
17214;SDS011;8723;51.502;6.918;2024-02-23T06:55:22;3.88;;;1.33;;
17214;SDS011;8723;51.502;6.918;2024-02-23T06:57:49;4.68;;;1.55;;
17214;SDS011;8723;51.502;6.918;2024-02-23T07:00:16;4.28;;;1.35;;
17214;SDS011;8723;51.502;6.918;2024-02-23T07:02:44;5.30;;;1.80;;
17214;SDS011;8723;51.502;6.918;2024-02-23T07:05:11;3.53;;;1.63;;
17214;SDS011;8723;51.502;6.918;2024-02-23T07:07:39;5.27;;;1.70;;
17214;SDS011;8723;51.502;6.918;2024-02-23T07:10:08;4.47;;;1.42;;
17214;SDS011;8723;51.502;6.918;2024-02-23T07:12:37;4.93;;;2.05;;
17214;SDS011;8723;51.502;6.918;2024-02-23T07:15:04;6.18;;;1.70;;
17214;SDS011;8723;51.502;6.918;2024-02-23T07:17:31;6.03;;;1.50;;
17214;SDS011;8723;51.502;6.918;2024-02-23T07:19:58;3.28;;;1.13;;
17214;SDS011;8723;51.502;6.918;2024-02-23T07:22:30;6.20;;;1.50;;
17214;SDS011;8723;51.502;6.918;2024-02-23T07:24:57;4.82;;;1.42;;
17214;SDS011;8723;51.502;6.918;2024-02-23T07:27:28;4.15;;;1.35;;
17214;SDS011;8723;51.502;6.918;2024-02-23T07:29:55;5.20;;;1.52;;
17214;SDS011;8723;51.502;6.918;2024-02-23T07:32:22;2.53;;;1.30;;
17214;SDS011;8723;51.502;6.918;2024-02-23T07:34:50;4.47;;;1.52;;
17214;SDS011;8723;51.502;6.918;2024-02-23T07:37:17;5.28;;;1.45;;
17214;SDS011;8723;51.502;6.918;2024-02-23T07:39:45;4.60;;;1.48;;
17214;SDS011;8723;51.502;6.918;2024-02-23T07:42:12;3.72;;;1.45;;
17214;SDS011;8723;51.502;6.918;2024-02-23T07:44:44;3.40;;;1.23;;
17214;SDS011;8723;51.502;6.918;2024-02-23T07:47:12;2.72;;;1.10;;
17214;SDS011;8723;51.502;6.918;2024-02-23T07:49:39;5.95;;;1.50;;
17214;SDS011;8723;51.502;6.918;2024-02-23T07:52:06;4.80;;;1.50;;
17214;SDS011;8723;51.502;6.918;2024-02-23T07:54:33;3.95;;;1.40;;
17214;SDS011;8723;51.502;6.918;2024-02-23T07:57:00;5.88;;;1.45;;
17214;SDS011;8723;51.502;6.918;2024-02-23T07:59:29;4.03;;;1.40;;
17214;SDS011;8723;51.502;6.918;2024-02-23T08:01:58;4.32;;;1.65;;
17214;SDS011;8723;51.502;6.918;2024-02-23T08:04:25;5.57;;;1.70;;
17214;SDS011;8723;51.502;6.918;2024-02-23T08:06:52;3.45;;;1.55;;
17214;SDS011;8723;51.502;6.918;2024-02-23T08:09:19;5.07;;;1.60;;
17214;SDS011;8723;51.502;6.918;2024-02-23T08:11:47;8.47;;;1.80;;
17214;SDS011;8723;51.502;6.918;2024-02-23T08:14:14;3.75;;;1.73;;
17214;SDS011;8723;51.502;6.918;2024-02-23T08:16:41;5.03;;;1.52;;
17214;SDS011;8723;51.502;6.918;2024-02-23T08:19:10;5.43;;;1.50;;
17214;SDS011;8723;51.502;6.918;2024-02-23T08:21:37;6.93;;;1.50;;
17214;SDS011;8723;51.502;6.918;2024-02-23T08:24:06;3.67;;;1.58;;
17214;SDS011;8723;51.502;6.918;2024-02-23T08:26:33;5.32;;;1.30;;
17214;SDS011;8723;51.502;6.918;2024-02-23T08:29:03;4.50;;;1.38;;
17214;SDS011;8723;51.502;6.918;2024-02-23T08:31:30;4.32;;;1.30;;
17214;SDS011;8723;51.502;6.918;2024-02-23T08:33:57;3.57;;;1.50;;
17214;SDS011;8723;51.502;6.918;2024-02-23T08:36:26;6.85;;;1.40;;
17214;SDS011;8723;51.502;6.918;2024-02-23T08:38:53;4.68;;;1.42;;
17214;SDS011;8723;51.502;6.918;2024-02-23T08:41:20;5.78;;;1.38;;
17214;SDS011;8723;51.502;6.918;2024-02-23T08:43:47;5.75;;;1.48;;
17214;SDS011;8723;51.502;6.918;2024-02-23T08:46:15;5.90;;;1.52;;
17214;SDS011;8723;51.502;6.918;2024-02-23T08:48:42;6.90;;;1.63;;
17214;SDS011;8723;51.502;6.918;2024-02-23T08:51:09;3.63;;;1.30;;
17214;SDS011;8723;51.502;6.918;2024-02-23T08:53:37;5.00;;;1.23;;
17214;SDS011;8723;51.502;6.918;2024-02-23T08:56:06;2.63;;;1.40;;
17214;SDS011;8723;51.502;6.918;2024-02-23T08:58:34;5.40;;;1.73;;
17214;SDS011;8723;51.502;6.918;2024-02-23T09:01:02;5.07;;;1.30;;
17214;SDS011;8723;51.502;6.918;2024-02-23T09:03:30;4.88;;;1.35;;
17214;SDS011;8723;51.502;6.918;2024-02-23T09:05:57;3.45;;;1.20;;
17214;SDS011;8723;51.502;6.918;2024-02-23T09:08:24;4.93;;;1.20;;
17214;SDS011;8723;51.502;6.918;2024-02-23T09:10:52;2.72;;;1.33;;
17214;SDS011;8723;51.502;6.918;2024-02-23T09:13:19;5.57;;;1.65;;
17214;SDS011;8723;51.502;6.918;2024-02-23T09:15:47;5.53;;;1.50;;
17214;SDS011;8723;51.502;6.918;2024-02-23T09:18:14;5.03;;;1.50;;
17214;SDS011;8723;51.502;6.918;2024-02-23T09:20:41;6.85;;;1.50;;
17214;SDS011;8723;51.502;6.918;2024-02-23T09:23:08;3.42;;;1.27;;
17214;SDS011;8723;51.502;6.918;2024-02-23T09:25:35;4.22;;;1.60;;
17214;SDS011;8723;51.502;6.918;2024-02-23T09:28:04;4.40;;;1.48;;
17214;SDS011;8723;51.502;6.918;2024-02-23T09:30:31;2.75;;;1.08;;
17214;SDS011;8723;51.502;6.918;2024-02-23T09:32:59;1.98;;;1.20;;
17214;SDS011;8723;51.502;6.918;2024-02-23T09:35:26;3.40;;;1.03;;
17214;SDS011;8723;51.502;6.918;2024-02-23T09:37:53;5.75;;;1.25;;
17214;SDS011;8723;51.502;6.918;2024-02-23T09:40:20;6.28;;;1.33;;
17214;SDS011;8723;51.502;6.918;2024-02-23T09:42:48;3.35;;;1.15;;
17214;SDS011;8723;51.502;6.918;2024-02-23T09:45:19;3.30;;;1.30;;
17214;SDS011;8723;51.502;6.918;2024-02-23T09:47:46;3.92;;;1.27;;
17214;SDS011;8723;51.502;6.918;2024-02-23T09:50:14;4.87;;;1.13;;
17214;SDS011;8723;51.502;6.918;2024-02-23T09:52:41;4.40;;;1.38;;
17214;SDS011;8723;51.502;6.918;2024-02-23T09:55:09;2.50;;;1.35;;
17214;SDS011;8723;51.502;6.918;2024-02-23T09:57:36;3.50;;;1.20;;
17214;SDS011;8723;51.502;6.918;2024-02-23T10:00:04;3.67;;;1.10;;
17214;SDS011;8723;51.502;6.918;2024-02-23T10:02:34;3.25;;;1.10;;
17214;SDS011;8723;51.502;6.918;2024-02-23T10:05:01;4.00;;;1.70;;
17214;SDS011;8723;51.502;6.918;2024-02-23T10:07:29;3.75;;;1.27;;
17214;SDS011;8723;51.502;6.918;2024-02-23T10:09:56;5.15;;;1.60;;
17214;SDS011;8723;51.502;6.918;2024-02-23T10:12:26;5.07;;;1.10;;
17214;SDS011;8723;51.502;6.918;2024-02-23T10:14:53;5.57;;;1.50;;
17214;SDS011;8723;51.502;6.918;2024-02-23T10:17:20;6.18;;;1.52;;
17214;SDS011;8723;51.502;6.918;2024-02-23T10:19:49;3.72;;;1.17;;
17214;SDS011;8723;51.502;6.918;2024-02-23T10:22:16;2.55;;;1.13;;
17214;SDS011;8723;51.502;6.918;2024-02-23T10:24:45;6.03;;;1.35;;
17214;SDS011;8723;51.502;6.918;2024-02-23T10:27:13;2.47;;;1.20;;
17214;SDS011;8723;51.502;6.918;2024-02-23T10:29:40;4.10;;;1.13;;
17214;SDS011;8723;51.502;6.918;2024-02-23T10:32:07;3.72;;;1.10;;
17214;SDS011;8723;51.502;6.918;2024-02-23T10:34:37;3.78;;;1.40;;
17214;SDS011;8723;51.502;6.918;2024-02-23T10:37:06;5.85;;;1.10;;
17214;SDS011;8723;51.502;6.918;2024-02-23T10:39:34;2.10;;;1.02;;
17214;SDS011;8723;51.502;6.918;2024-02-23T10:42:03;3.97;;;1.30;;
17214;SDS011;8723;51.502;6.918;2024-02-23T10:44:31;4.90;;;1.20;;
17214;SDS011;8723;51.502;6.918;2024-02-23T10:46:58;5.72;;;1.48;;
17214;SDS011;8723;51.502;6.918;2024-02-23T10:49:25;4.50;;;1.30;;
17214;SDS011;8723;51.502;6.918;2024-02-23T10:51:53;4.13;;;1.80;;
17214;SDS011;8723;51.502;6.918;2024-02-23T10:54:22;2.65;;;0.90;;
17214;SDS011;8723;51.502;6.918;2024-02-23T10:56:49;3.50;;;1.17;;
17214;SDS011;8723;51.502;6.918;2024-02-23T10:59:17;2.47;;;1.27;;
17214;SDS011;8723;51.502;6.918;2024-02-23T11:01:45;3.70;;;1.07;;
17214;SDS011;8723;51.502;6.918;2024-02-23T11:04:12;3.03;;;1.15;;
17214;SDS011;8723;51.502;6.918;2024-02-23T11:06:40;4.00;;;1.20;;
17214;SDS011;8723;51.502;6.918;2024-02-23T11:09:08;2.53;;;1.02;;
17214;SDS011;8723;51.502;6.918;2024-02-23T11:11:40;3.33;;;1.10;;
17214;SDS011;8723;51.502;6.918;2024-02-23T11:14:17;4.38;;;1.08;;
17214;SDS011;8723;51.502;6.918;2024-02-23T11:16:44;2.97;;;0.98;;
17214;SDS011;8723;51.502;6.918;2024-02-23T11:19:18;3.07;;;0.80;;
17214;SDS011;8723;51.502;6.918;2024-02-23T11:21:52;3.50;;;1.02;;
17214;SDS011;8723;51.502;6.918;2024-02-23T11:24:19;2.65;;;1.20;;
17214;SDS011;8723;51.502;6.918;2024-02-23T11:26:48;4.55;;;1.15;;
17214;SDS011;8723;51.502;6.918;2024-02-23T11:29:15;4.80;;;1.20;;
17214;SDS011;8723;51.502;6.918;2024-02-23T11:31:44;3.60;;;1.03;;
17214;SDS011;8723;51.502;6.918;2024-02-23T11:34:11;4.15;;;1.13;;
17214;SDS011;8723;51.502;6.918;2024-02-23T11:36:38;3.72;;;0.90;;
17214;SDS011;8723;51.502;6.918;2024-02-23T11:39:06;5.95;;;1.25;;
17214;SDS011;8723;51.502;6.918;2024-02-23T11:41:33;3.35;;;1.10;;
17214;SDS011;8723;51.502;6.918;2024-02-23T11:44:01;4.65;;;1.15;;
17214;SDS011;8723;51.502;6.918;2024-02-23T11:46:28;2.50;;;1.00;;
17214;SDS011;8723;51.502;6.918;2024-02-23T11:48:56;2.00;;;1.00;;
17214;SDS011;8723;51.502;6.918;2024-02-23T11:51:24;5.13;;;1.38;;
17214;SDS011;8723;51.502;6.918;2024-02-23T11:53:52;3.33;;;0.80;;
17214;SDS011;8723;51.502;6.918;2024-02-23T11:56:21;2.90;;;0.87;;
17214;SDS011;8723;51.502;6.918;2024-02-23T11:58:49;3.72;;;1.33;;
17214;SDS011;8723;51.502;6.918;2024-02-23T12:01:17;2.35;;;1.10;;
17214;SDS011;8723;51.502;6.918;2024-02-23T12:03:45;4.75;;;1.30;;
17214;SDS011;8723;51.502;6.918;2024-02-23T12:06:12;5.07;;;0.98;;
17214;SDS011;8723;51.502;6.918;2024-02-23T12:08:40;2.10;;;0.85;;
17214;SDS011;8723;51.502;6.918;2024-02-23T12:11:09;3.85;;;1.27;;
17214;SDS011;8723;51.502;6.918;2024-02-23T12:13:36;4.38;;;1.60;;
17214;SDS011;8723;51.502;6.918;2024-02-23T12:16:04;4.82;;;1.40;;
17214;SDS011;8723;51.502;6.918;2024-02-23T12:18:34;4.28;;;1.63;;
17214;SDS011;8723;51.502;6.918;2024-02-23T12:21:01;3.30;;;1.67;;
17214;SDS011;8723;51.502;6.918;2024-02-23T12:23:37;3.67;;;1.35;;
17214;SDS011;8723;51.502;6.918;2024-02-23T12:26:04;3.60;;;1.20;;
17214;SDS011;8723;51.502;6.918;2024-02-23T12:28:31;2.88;;;1.02;;
17214;SDS011;8723;51.502;6.918;2024-02-23T12:30:59;3.80;;;1.10;;
17214;SDS011;8723;51.502;6.918;2024-02-23T12:33:27;5.80;;;1.40;;
17214;SDS011;8723;51.502;6.918;2024-02-23T12:35:56;3.67;;;1.30;;
17214;SDS011;8723;51.502;6.918;2024-02-23T12:38:23;4.15;;;1.15;;
17214;SDS011;8723;51.502;6.918;2024-02-23T12:40:50;3.10;;;1.10;;
17214;SDS011;8723;51.502;6.918;2024-02-23T12:43:18;7.85;;;1.48;;
17214;SDS011;8723;51.502;6.918;2024-02-23T12:45:46;2.00;;;1.08;;
17214;SDS011;8723;51.502;6.918;2024-02-23T12:48:15;2.67;;;1.05;;
17214;SDS011;8723;51.502;6.918;2024-02-23T12:50:42;3.33;;;1.10;;
17214;SDS011;8723;51.502;6.918;2024-02-23T12:53:11;4.38;;;1.20;;
17214;SDS011;8723;51.502;6.918;2024-02-23T12:55:56;3.92;;;1.40;;
17214;SDS011;8723;51.502;6.918;2024-02-23T12:58:24;3.33;;;1.20;;
17214;SDS011;8723;51.502;6.918;2024-02-23T13:00:51;3.60;;;1.20;;
17214;SDS011;8723;51.502;6.918;2024-02-23T13:03:18;4.20;;;1.10;;
17214;SDS011;8723;51.502;6.918;2024-02-23T13:05:46;5.68;;;1.35;;
17214;SDS011;8723;51.502;6.918;2024-02-23T13:08:14;2.63;;;1.10;;
17214;SDS011;8723;51.502;6.918;2024-02-23T13:10:41;3.95;;;1.23;;
17214;SDS011;8723;51.502;6.918;2024-02-23T13:13:08;2.88;;;1.10;;
17214;SDS011;8723;51.502;6.918;2024-02-23T13:15:36;4.18;;;1.20;;
17214;SDS011;8723;51.502;6.918;2024-02-23T13:18:03;4.03;;;1.10;;
17214;SDS011;8723;51.502;6.918;2024-02-23T13:20:30;3.63;;;1.20;;
17214;SDS011;8723;51.502;6.918;2024-02-23T13:22:58;2.83;;;1.08;;
17214;SDS011;8723;51.502;6.918;2024-02-23T13:25:26;3.55;;;1.27;;
17214;SDS011;8723;51.502;6.918;2024-02-23T13:27:54;4.82;;;1.15;;
17214;SDS011;8723;51.502;6.918;2024-02-23T13:30:21;3.63;;;1.13;;
17214;SDS011;8723;51.502;6.918;2024-02-23T13:32:48;4.57;;;1.20;;
17214;SDS011;8723;51.502;6.918;2024-02-23T13:35:15;3.60;;;1.10;;
17214;SDS011;8723;51.502;6.918;2024-02-23T13:37:43;4.35;;;1.08;;
17214;SDS011;8723;51.502;6.918;2024-02-23T13:40:10;3.50;;;1.00;;
17214;SDS011;8723;51.502;6.918;2024-02-23T13:42:39;5.07;;;1.20;;
17214;SDS011;8723;51.502;6.918;2024-02-23T13:45:06;3.92;;;1.23;;
17214;SDS011;8723;51.502;6.918;2024-02-23T13:47:34;4.88;;;1.20;;
17214;SDS011;8723;51.502;6.918;2024-02-23T13:50:01;3.33;;;1.00;;
17214;SDS011;8723;51.502;6.918;2024-02-23T13:52:29;3.38;;;1.38;;
17214;SDS011;8723;51.502;6.918;2024-02-23T13:54:56;4.20;;;1.30;;
17214;SDS011;8723;51.502;6.918;2024-02-23T13:57:23;7.18;;;1.50;;
17214;SDS011;8723;51.502;6.918;2024-02-23T13:59:51;4.37;;;1.17;;
17214;SDS011;8723;51.502;6.918;2024-02-23T14:02:24;4.95;;;2.10;;
17214;SDS011;8723;51.502;6.918;2024-02-23T14:04:51;6.18;;;1.60;;
17214;SDS011;8723;51.502;6.918;2024-02-23T14:07:19;5.35;;;1.60;;
17214;SDS011;8723;51.502;6.918;2024-02-23T14:09:46;3.42;;;1.17;;
17214;SDS011;8723;51.502;6.918;2024-02-23T14:12:13;4.13;;;1.98;;
17214;SDS011;8723;51.502;6.918;2024-02-23T14:14:40;4.00;;;1.80;;
17214;SDS011;8723;51.502;6.918;2024-02-23T14:17:09;6.10;;;1.40;;
17214;SDS011;8723;51.502;6.918;2024-02-23T14:19:36;2.23;;;1.20;;
17214;SDS011;8723;51.502;6.918;2024-02-23T14:22:04;4.07;;;1.30;;
17214;SDS011;8723;51.502;6.918;2024-02-23T14:24:31;4.68;;;1.35;;
17214;SDS011;8723;51.502;6.918;2024-02-23T14:26:58;3.10;;;1.30;;
17214;SDS011;8723;51.502;6.918;2024-02-23T14:29:25;3.60;;;1.08;;
17214;SDS011;8723;51.502;6.918;2024-02-23T14:31:53;2.85;;;1.02;;
17214;SDS011;8723;51.502;6.918;2024-02-23T14:34:21;3.67;;;1.45;;
17214;SDS011;8723;51.502;6.918;2024-02-23T14:36:48;3.80;;;1.23;;
17214;SDS011;8723;51.502;6.918;2024-02-23T14:39:16;4.18;;;1.30;;
17214;SDS011;8723;51.502;6.918;2024-02-23T14:41:43;3.47;;;1.27;;
17214;SDS011;8723;51.502;6.918;2024-02-23T14:44:10;5.82;;;1.63;;
17214;SDS011;8723;51.502;6.918;2024-02-23T14:46:37;3.15;;;1.20;;
17214;SDS011;8723;51.502;6.918;2024-02-23T14:49:04;3.65;;;1.20;;
17214;SDS011;8723;51.502;6.918;2024-02-23T14:51:33;2.65;;;1.50;;
17214;SDS011;8723;51.502;6.918;2024-02-23T14:54:01;2.60;;;1.10;;
17214;SDS011;8723;51.502;6.918;2024-02-23T14:56:28;3.17;;;1.05;;
17214;SDS011;8723;51.502;6.918;2024-02-23T14:58:56;1.80;;;0.80;;
17214;SDS011;8723;51.502;6.918;2024-02-23T15:01:23;1.70;;;0.90;;
17214;SDS011;8723;51.502;6.918;2024-02-23T15:03:50;3.17;;;1.00;;